createdAt,value
2022-08-12T00:02:04.132Z,100225.69
2022-08-12T00:07:26.807Z,100305.34
2022-08-12T00:12:47.325Z,100284.41
2022-08-12T00:18:07.977Z,100216.97
2022-08-12T00:23:28.599Z,100237.16
2022-08-12T00:28:49.882Z,100247.66
2022-08-12T00:34:10.494Z,100283.59
2022-08-12T00:39:31.790Z,100301.94
2022-08-12T00:44:34.218Z,100194.34
2022-08-12T00:49:37.536Z,100242.50
2022-08-12T00:54:42.717Z,100302.06
2022-08-12T00:59:53.710Z,100271.41
2022-08-12T01:05:18.979Z,100295.94
2022-08-12T01:10:40.370Z,100314.41
2022-08-12T01:15:45.860Z,100151.66
2022-08-12T01:21:12.127Z,100300.34
2022-08-12T01:26:25.210Z,100233.03
2022-08-12T01:31:29.475Z,100267.19
2022-08-12T01:36:47.908Z,100279.44
2022-08-12T01:41:55.134Z,100271.63
2022-08-12T01:47:09.793Z,100282.09
2022-08-12T01:52:26.621Z,100273.38
2022-08-12T01:57:58.403Z,100311.03
2022-08-12T02:03:53.130Z,100267.25
2022-08-12T02:09:17.931Z,100290.06
2022-08-12T02:14:52.020Z,100318.06
2022-08-12T02:20:03.604Z,100286.56
2022-08-12T02:25:28.044Z,100326.88
2022-08-12T02:30:41.255Z,100303.25
2022-08-12T02:35:45.112Z,100290.13
2022-08-12T02:40:48.039Z,100334.78
2022-08-12T02:46:01.655Z,100298.00
2022-08-12T02:51:09.723Z,100320.75
2022-08-12T02:56:15.286Z,100294.50
2022-08-12T03:01:23.881Z,100295.41
2022-08-12T03:06:32.889Z,100273.47
2022-08-12T03:11:51.025Z,100326.00
2022-08-12T03:17:16.342Z,100319.84
2022-08-12T03:22:41.030Z,100181.53
2022-08-12T03:27:51.866Z,100233.19
2022-08-12T03:32:57.017Z,100296.22
2022-08-12T03:38:01.414Z,100291.81
2022-08-12T03:43:29.741Z,100295.31
2022-08-12T03:48:53.480Z,100241.84
2022-08-12T03:54:14.318Z,100282.94
2022-08-12T03:59:35.056Z,100267.16
2022-08-12T04:04:37.269Z,100228.59
2022-08-12T04:09:44.560Z,100318.72
2022-08-12T04:14:47.209Z,100292.41
2022-08-12T04:19:50.114Z,100325.63
2022-08-12T04:24:54.082Z,100301.03
2022-08-12T04:30:21.112Z,100289.53
2022-08-12T04:35:20.727Z,100266.69
2022-08-12T04:40:28.041Z,100229.78
2022-08-12T04:45:35.962Z,100260.22
2022-08-12T04:50:41.035Z,100300.28
2022-08-12T04:55:45.863Z,100299.34
2022-08-12T05:00:48.061Z,100222.16
2022-08-12T05:05:50.362Z,100247.34
2022-08-12T05:10:53.274Z,100283.00
2022-08-12T05:16:03.899Z,100309.72
2022-08-12T05:21:10.573Z,100280.63
2022-08-12T05:26:12.740Z,100254.97
2022-08-12T05:31:15.022Z,100222.44
2022-08-12T05:36:37.282Z,100285.84
2022-08-12T05:41:40.189Z,100281.97
2022-08-12T05:46:43.243Z,100178.81
2022-08-12T05:51:45.437Z,100290.06
2022-08-12T05:56:48.618Z,100285.38
2022-08-12T06:02:09.458Z,100282.47
2022-08-12T06:07:59.847Z,100302.00
2022-08-12T06:12:36.798Z,100266.75
2022-08-12T06:17:38.997Z,100292.53
2022-08-12T06:22:43.959Z,100205.84
2022-08-12T06:28:07.255Z,100217.41
2022-08-12T06:33:21.182Z,100254.38
2022-08-12T06:38:29.456Z,100254.00
2022-08-12T06:44:06.721Z,100266.88
2022-08-12T06:48:59.516Z,100273.69
2022-08-12T06:54:02.546Z,100257.50
2022-08-12T06:59:06.087Z,100229.16
2022-08-12T07:04:33.849Z,100297.53
2022-08-12T07:10:04.858Z,100227.69
2022-08-12T07:14:52.963Z,100208.88
2022-08-12T07:19:59.182Z,100263.44
2022-08-12T07:25:20.054Z,100242.94
2022-08-12T07:30:23.411Z,100261.94
2022-08-12T07:35:27.759Z,100268.50
2022-08-12T07:40:31.675Z,100271.78
2022-08-12T07:45:33.968Z,100255.19
2022-08-12T07:50:36.150Z,100255.78
2022-08-12T07:55:38.343Z,100316.34
2022-08-12T08:00:40.646Z,100239.19
2022-08-12T08:05:49.808Z,100301.31
2022-08-12T08:11:24.186Z,100213.84
2022-08-12T08:21:57.700Z,100081.81
2022-08-12T08:27:01.286Z,100234.25
2022-08-12T08:32:04.684Z,100227.75
2022-08-12T08:37:10.828Z,100252.41
2022-08-12T08:42:36.177Z,100236.06
2022-08-12T08:47:44.274Z,100227.16
2022-08-12T08:52:48.982Z,100280.44
2022-08-12T08:57:54.399Z,100245.19
2022-08-12T09:02:59.494Z,100244.81
2022-08-12T09:08:13.102Z,100258.28
2022-08-12T09:14:12.233Z,100252.63
2022-08-12T09:24:20.102Z,100228.66
2022-08-12T09:30:11.489Z,100212.84
2022-08-12T09:34:46.880Z,100205.97
2022-08-12T09:40:03.304Z,100248.88
2022-08-12T09:46:06.087Z,100212.00
2022-08-12T09:50:51.758Z,100176.91
2022-08-12T09:56:06.955Z,100184.78
2022-08-12T10:01:23.315Z,100185.47
2022-08-12T10:06:32.203Z,100160.91
2022-08-12T10:12:11.322Z,100021.41
2022-08-12T10:17:15.720Z,100151.25
2022-08-12T10:22:39.197Z,100181.38
2022-08-12T10:28:09.878Z,100165.22
2022-08-12T10:33:31.034Z,100164.63
2022-08-12T10:38:41.543Z,100129.44
2022-08-12T10:43:55.820Z,100162.88
2022-08-12T10:49:06.229Z,100178.97
2022-08-12T10:54:28.199Z,100189.22
2022-08-12T11:00:29.368Z,100161.66
2022-08-12T11:07:03.320Z,100179.97
2022-08-12T11:10:26.516Z,100086.00
2022-08-12T11:16:03.341Z,100100.22
2022-08-12T11:20:52.153Z,100097.16
2022-08-12T11:25:58.123Z,100140.97
2022-08-12T11:31:01.318Z,100138.84
2022-08-12T11:36:14.651Z,100157.19
2022-08-12T11:41:18.133Z,100114.19
2022-08-12T11:46:38.693Z,100151.03
2022-08-12T11:51:41.045Z,100079.63
2022-08-12T11:56:52.431Z,100086.78
2022-08-12T12:02:05.596Z,100119.00
2022-08-12T12:07:11.521Z,100074.94
2022-08-12T12:12:15.035Z,100065.66
2022-08-12T12:17:17.673Z,100076.63
2022-08-12T12:22:23.359Z,100088.81
2022-08-12T12:28:05.055Z,100063.81
2022-08-12T12:33:17.683Z,100099.22
2022-08-12T12:38:40.772Z,100091.59
2022-08-12T12:43:56.556Z,100054.03
2022-08-12T12:49:11.035Z,100054.06
2022-08-12T12:54:13.469Z,99999.59
2022-08-12T12:59:56.435Z,99960.28
2022-08-12T13:04:41.266Z,99988.53
2022-08-12T13:09:46.980Z,100070.13
2022-08-12T13:14:52.184Z,100053.19
2022-08-12T13:19:55.650Z,99944.88
2022-08-12T13:25:00.019Z,100023.09
2022-08-12T13:30:06.871Z,99999.16
2022-08-12T13:35:19.686Z,99988.44
2022-08-12T13:40:35.638Z,100030.25
2022-08-12T13:45:41.946Z,100005.03
2022-08-12T13:50:44.240Z,99965.16
2022-08-12T13:56:01.388Z,99985.16
2022-08-12T14:01:08.910Z,100019.91
2022-08-12T14:06:15.377Z,100040.13
2022-08-12T14:11:32.364Z,100022.25
2022-08-12T14:16:49.370Z,99909.22
2022-08-12T14:21:59.174Z,100046.28
2022-08-12T14:27:02.862Z,99923.56
2022-08-12T14:32:07.918Z,100022.41
2022-08-12T14:37:58.197Z,100007.22
2022-08-12T14:42:42.137Z,99960.53
2022-08-12T14:47:58.620Z,100017.84
2022-08-12T14:58:24.888Z,100019.34
2022-08-12T15:03:46.634Z,100013.94
2022-08-12T15:08:50.563Z,100033.63
2022-08-12T15:13:56.163Z,100019.00
2022-08-12T15:18:59.262Z,100027.28
2022-08-12T15:24:08.889Z,100047.44
2022-08-12T15:29:16.946Z,99922.72
2022-08-12T15:34:19.249Z,100014.84
2022-08-12T15:39:21.785Z,99983.13
2022-08-12T15:44:42.147Z,99885.50
2022-08-12T15:50:00.090Z,99990.72
2022-08-12T15:55:05.982Z,99995.28
2022-08-12T16:00:31.682Z,99909.13
2022-08-12T16:06:11.777Z,100004.00
2022-08-12T16:11:14.908Z,99864.28
2022-08-12T16:16:24.180Z,100027.50
2022-08-12T16:21:50.468Z,99994.94
2022-08-12T16:26:51.252Z,100013.78
2022-08-12T16:31:56.413Z,100024.94
2022-08-12T16:37:02.325Z,100016.06
2022-08-12T16:42:05.784Z,100019.53
2022-08-12T16:47:08.110Z,99994.06
2022-08-12T16:52:12.703Z,100055.31
2022-08-12T16:57:15.289Z,100019.38
2022-08-12T17:02:31.635Z,99899.91
2022-08-12T17:07:43.088Z,99904.69
2022-08-12T17:12:45.823Z,99949.34
2022-08-12T17:18:39.073Z,99887.88
2022-08-12T17:23:20.574Z,100063.56
2022-08-12T17:28:25.536Z,100016.56
2022-08-12T17:33:33.515Z,100057.59
2022-08-12T17:38:38.270Z,100019.06
2022-08-12T17:43:54.797Z,100024.75
2022-08-12T17:49:06.918Z,100051.50
2022-08-12T17:54:24.903Z,100019.13
2022-08-12T17:59:48.466Z,100030.50
2022-08-12T18:05:04.899Z,99998.72
2022-08-12T18:10:08.647Z,100006.41
2022-08-12T18:15:47.742Z,100021.63
2022-08-12T18:20:44.654Z,100057.53
2022-08-12T18:26:12.472Z,100044.38
2022-08-12T18:31:24.184Z,100057.72
2022-08-12T18:36:51.632Z,100030.44
2022-08-12T18:41:54.494Z,99995.28
2022-08-12T18:47:01.690Z,99995.47
2022-08-12T18:52:11.848Z,100010.78
2022-08-12T18:57:20.008Z,100018.16
2022-08-12T19:02:40.363Z,100060.94
2022-08-12T19:08:00.532Z,100065.41
2022-08-12T19:13:25.121Z,100022.75
2022-08-12T19:18:35.652Z,100019.97
2022-08-12T19:23:42.283Z,99977.72
2022-08-12T19:28:48.147Z,100008.38
2022-08-12T19:34:14.601Z,100043.41
2022-08-12T19:39:15.290Z,99944.66
2022-08-12T19:44:27.259Z,99990.00
2022-08-12T19:49:29.916Z,100039.75
2022-08-12T19:54:56.249Z,100008.59
2022-08-12T20:00:03.644Z,100069.63
2022-08-12T20:06:08.022Z,99976.56
2022-08-12T20:10:37.160Z,99976.88
2022-08-12T20:15:44.558Z,100014.50
2022-08-12T20:20:47.818Z,100055.72
2022-08-12T20:25:58.620Z,100034.91
2022-08-12T20:31:08.686Z,100021.84
2022-08-12T20:36:41.053Z,99910.69
2022-08-12T20:41:36.244Z,100001.59
2022-08-12T20:46:38.826Z,100015.50
2022-08-12T20:51:54.876Z,100017.31
2022-08-12T20:56:58.243Z,100015.03
2022-08-12T21:02:04.948Z,99977.63
2022-08-12T21:07:10.343Z,100031.88
2022-08-12T21:12:28.650Z,100040.66
2022-08-12T21:18:08.269Z,100095.84
2022-08-12T21:22:57.741Z,100006.97
2022-08-12T21:28:01.271Z,100080.47
2022-08-12T21:33:10.701Z,100021.19
2022-08-12T21:38:16.949Z,99950.81
2022-08-12T21:43:21.191Z,100005.19
2022-08-12T21:48:25.571Z,100003.47
2022-08-12T21:54:06.133Z,100060.97
2022-08-12T21:58:50.135Z,100054.09
2022-08-12T22:04:12.568Z,100081.28
2022-08-12T22:09:15.756Z,100052.69
2022-08-12T22:14:23.522Z,100027.53
2022-08-12T22:19:26.675Z,99904.84
2022-08-12T22:24:30.363Z,100101.03
2022-08-12T22:29:52.614Z,100090.72
2022-08-12T22:35:22.408Z,99980.19
2022-08-12T22:40:26.582Z,100064.97
2022-08-12T22:45:48.479Z,100094.78
2022-08-12T22:50:59.770Z,100064.25
2022-08-12T22:56:06.482Z,100078.28
2022-08-12T23:01:13.771Z,100043.66
2022-08-12T23:06:25.292Z,100121.31
2022-08-12T23:11:33.635Z,100066.44
2022-08-12T23:16:41.013Z,100112.81
2022-08-12T23:22:05.065Z,100120.75
2022-08-12T23:27:51.045Z,100082.56
2022-08-12T23:32:59.853Z,100026.88
2022-08-12T23:38:03.339Z,100054.81
2022-08-12T23:43:05.953Z,100089.75
2022-08-12T23:48:08.450Z,100068.03
2022-08-12T23:53:32.370Z,100099.50
2022-08-12T23:58:35.774Z,100120.59
